Humidity-temperature Sensor

Selected Measurement Type: Relative Humidity

 
Relative Humidity [%]     6 entries per hour
Showing data from 9/18/2017 (00:00:00 Z) to 9/15/2017 (00:01:00 Z)
Previous Next [ Day | 3-Days | 7-Days ]
First Last
Prev [ Day | 3-Days | 7-Days ] Next
First Last

Start Time:     :
End Time:     :     
Time (in GMT) :00 :50 :40 :30 :20 :10
Previous Next [ Day | 3-Days | 7-Days ]
First Last
Prev [ Day | 3-Days | 7-Days ] Next
First Last


123 => good data
MM => data is determined as missing
-- => data not received/configured
Back to Top Back to Top
9/18/2017 00:00 to 23:10 84.83 85.43 85.18 83.89 84.70 83.71
9/17/2017 23:00 to 22:10 84.89 85.82 87.02 88.64 89.96 91.29
9/17/2017 22:00 to 21:10 91.52 93.71 95.23 95.79 96.34 97.03
9/17/2017 21:00 to 20:10 96.78 96.24 94.98 89.07 86.42 86.42
9/17/2017 20:00 to 19:10 87.19 87.67 86.84 85.14 81.62 86.53
9/17/2017 19:00 to 18:10 88.49 85.66 83.05 82.92 82.24 83.17
9/17/2017 18:00 to 17:10 81.28 80.85 80.77 80.95 81.97 86.07
9/17/2017 17:00 to 16:10 86.96 87.38 86.94 85.24 83.52 86.42
9/17/2017 16:00 to 15:10 87.89 91.10 90.79 87.58 91.77 92.39
9/17/2017 15:00 to 14:10 92.26 81.31 77.76 77.87 78.88 78.14
9/17/2017 14:00 to 13:10 76.81 77.89 77.95 78.74 78.99 79.65
9/17/2017 13:00 to 12:10 80.48 80.46 78.96 79.61 79.05 78.20
9/17/2017 12:00 to 11:10 79.19 78.30 78.74 78.92 78.05 77.70
9/17/2017 11:00 to 10:10 76.96 80.75 79.75 78.74 78.28 79.61
9/17/2017 10:00 to 9:10 79.30 80.08 80.04 80.08 80.35 79.75
9/17/2017 09:00 to 8:10 79.61 80.39 79.50 80.50 80.79 79.32
9/17/2017 08:00 to 7:10 78.05 77.68 77.14 76.64 78.30 75.34
9/17/2017 07:00 to 6:10 77.20 77.25 77.49 76.23 77.62 78.84
9/17/2017 06:00 to 5:10 -- -- -- -- -- --
9/17/2017 05:00 to 4:10 78.26 77.80 77.62 79.01 81.84 82.26
9/17/2017 04:00 to 3:10 80.75 81.35 83.25 81.72 80.73 81.62
9/17/2017 03:00 to 2:10 81.78 77.49 76.62 78.90 81.31 82.20
9/17/2017 02:00 to 1:10 83.09 81.53 84.16 85.41 86.15 86.03
9/17/2017 01:00 to 0:10 84.99 84.95 83.21 84.25 83.07 84.72
9/17/2017 00:00 to 23:10 85.39 86.26 88.76 89.82 88.02 87.42
9/16/2017 23:00 to 22:10 86.67 88.72 87.77 87.38 89.12 86.63
9/16/2017 22:00 to 21:10 94.40 92.24 92.06 91.17 90.44 88.14
9/16/2017 21:00 to 20:10 91.27 87.42 89.45 88.51 91.70 91.99
9/16/2017 20:00 to 19:10 91.56 91.54 92.55 90.07 91.81 88.25
9/16/2017 19:00 to 18:10 88.49 89.74 89.88 91.35 85.66 89.94
9/16/2017 18:00 to 17:10 90.92 91.00 91.91 94.07 94.21 96.05
9/16/2017 17:00 to 16:10 96.03 97.38 98.19 98.25 98.42 98.81
9/16/2017 16:00 to 15:10 98.62 98.04 93.61 88.08 87.77 87.81
9/16/2017 15:00 to 14:10 86.96 88.51 88.76 90.03 87.31 87.27
9/16/2017 14:00 to 13:10 88.80 88.87 88.72 88.39 88.18 88.45
9/16/2017 13:00 to 12:10 88.83 88.47 87.00 86.88 87.21 86.71
9/16/2017 12:00 to 11:10 86.71 87.81 87.54 88.35 88.16 85.55
9/16/2017 11:00 to 10:10 84.99 84.29 83.87 83.52 86.32 86.38
9/16/2017 10:00 to 9:10 86.28 86.05 86.44 85.16 86.05 87.27
9/16/2017 09:00 to 8:10 86.61 86.15 84.54 82.65 85.80 86.30
9/16/2017 08:00 to 7:10 80.06 79.63 79.48 79.75 79.90 80.23
9/16/2017 07:00 to 6:10 80.25 79.75 80.54 81.39 81.72 82.11
9/16/2017 06:00 to 5:10 81.68 82.53 82.28 83.67 84.83 85.59
9/16/2017 05:00 to 4:10 85.68 86.28 86.63 87.00 88.10 88.97
9/16/2017 04:00 to 3:10 90.03 89.14 90.50 86.92 90.71 89.18
9/16/2017 03:00 to 2:10 86.55 87.62 86.07 84.97 85.53 85.74
9/16/2017 02:00 to 1:10 84.68 85.84 84.50 84.23 74.86 74.20
9/16/2017 01:00 to 0:10 74.30 74.18 73.85 72.89 71.84 73.04
9/16/2017 00:00 to 23:10 72.40 71.44 71.47 70.70 72.02 72.63
9/15/2017 23:00 to 22:10 72.54 73.70 73.70 74.84 74.18 74.55
9/15/2017 22:00 to 21:10 74.76 73.85 74.68 74.78 75.01 75.09
9/15/2017 21:00 to 20:10 75.13 75.01 74.47 74.99 73.64 74.14
9/15/2017 20:00 to 19:10 74.41 75.46 75.15 74.30 74.39 75.13
9/15/2017 19:00 to 18:10 75.94 75.36 75.59 74.76 74.92 75.42
9/15/2017 18:00 to 17:10 76.09 76.46 78.53 77.66 76.02 76.98
9/15/2017 17:00 to 16:10 76.81 76.33 77.35 76.23 75.80 76.46
9/15/2017 16:00 to 15:10 76.62 75.77 76.77 77.37 78.41 80.12
9/15/2017 15:00 to 14:10 79.40 80.12 79.23 80.85 80.44 80.08
9/15/2017 14:00 to 13:10 80.19 74.14 75.32 74.45 74.82 74.24
9/15/2017 13:00 to 12:10 74.59 74.51 74.68 75.32 75.88 74.80
9/15/2017 12:00 to 11:10 74.99 76.13 76.50 77.22 77.54 76.79
9/15/2017 11:00 to 10:10 77.76 79.67 78.45 78.05 71.42 70.72
9/15/2017 10:00 to 9:10 74.39 72.02 71.84 70.78 71.32 69.99
9/15/2017 09:00 to 8:10 70.37 70.28 67.05 66.87 66.39 64.59
9/15/2017 08:00 to 7:10 69.27 67.28 67.05 66.72 67.32 65.42
9/15/2017 07:00 to 6:10 64.94 68.79 66.97 65.38 66.12 67.09
9/15/2017 06:00 to 5:10 67.07 66.49 66.64 66.37 66.91 65.27
9/15/2017 05:00 to 4:10 63.82 62.91 63.12 61.94 61.60 60.76
9/15/2017 04:00 to 3:10 61.36 65.02 65.31 64.80 62.91 65.44
9/15/2017 03:00 to 2:10 65.35 65.85 67.86 65.48 67.99 68.25
9/15/2017 02:00 to 1:10 67.36 67.28 67.38 67.55 67.16 66.14
9/15/2017 01:00 to 0:10 66.56 69.33 69.23 68.54 69.19 68.71